sensor_id;sensor_type;location;lat;lon;timestamp;P1;durP1;ratioP1;P2;durP2;ratioP2
52918;SDS011;38793;52.690;6.812;2022-10-15T00:00:48;97.00;;;49.53;;
52918;SDS011;38793;52.690;6.812;2022-10-15T00:03:13;124.63;;;55.93;;
52918;SDS011;38793;52.690;6.812;2022-10-15T00:05:39;97.20;;;50.17;;
52918;SDS011;38793;52.690;6.812;2022-10-15T00:08:06;100.75;;;52.00;;
52918;SDS011;38793;52.690;6.812;2022-10-15T00:10:32;98.63;;;52.45;;
52918;SDS011;38793;52.690;6.812;2022-10-15T00:12:58;86.97;;;47.42;;
52918;SDS011;38793;52.690;6.812;2022-10-15T00:15:24;85.72;;;50.63;;
52918;SDS011;38793;52.690;6.812;2022-10-15T00:17:50;95.57;;;50.88;;
52918;SDS011;38793;52.690;6.812;2022-10-15T00:20:16;120.07;;;55.35;;
52918;SDS011;38793;52.690;6.812;2022-10-15T00:22:41;89.18;;;51.13;;
52918;SDS011;38793;52.690;6.812;2022-10-15T00:25:07;110.67;;;52.63;;
52918;SDS011;38793;52.690;6.812;2022-10-15T00:27:34;118.20;;;54.50;;
52918;SDS011;38793;52.690;6.812;2022-10-15T00:32:27;115.50;;;53.40;;
52918;SDS011;38793;52.690;6.812;2022-10-15T00:34:53;100.90;;;51.50;;
52918;SDS011;38793;52.690;6.812;2022-10-15T00:37:18;112.00;;;53.40;;
52918;SDS011;38793;52.690;6.812;2022-10-15T00:42:10;112.93;;;53.80;;
52918;SDS011;38793;52.690;6.812;2022-10-15T00:47:24;115.45;;;52.88;;
52918;SDS011;38793;52.690;6.812;2022-10-15T00:52:32;116.97;;;53.78;;
52918;SDS011;38793;52.690;6.812;2022-10-15T00:55:04;132.82;;;55.22;;
52918;SDS011;38793;52.690;6.812;2022-10-15T00:57:42;151.80;;;55.28;;
52918;SDS011;38793;52.690;6.812;2022-10-15T01:00:12;198.57;;;55.17;;
52918;SDS011;38793;52.690;6.812;2022-10-15T01:02:39;204.57;;;54.13;;
52918;SDS011;38793;52.690;6.812;2022-10-15T01:05:05;167.38;;;57.42;;
52918;SDS011;38793;52.690;6.812;2022-10-15T01:07:32;196.57;;;56.05;;
52918;SDS011;38793;52.690;6.812;2022-10-15T01:09:58;218.70;;;57.03;;
52918;SDS011;38793;52.690;6.812;2022-10-15T01:12:47;206.27;;;56.38;;
52918;SDS011;38793;52.690;6.812;2022-10-15T01:15:32;281.85;;;63.83;;
52918;SDS011;38793;52.690;6.812;2022-10-15T01:18:09;220.10;;;54.43;;
52918;SDS011;38793;52.690;6.812;2022-10-15T01:23:45;202.25;;;53.17;;
52918;SDS011;38793;52.690;6.812;2022-10-15T01:29:27;393.08;;;76.82;;
52918;SDS011;38793;52.690;6.812;2022-10-15T01:32:01;214.63;;;58.88;;
52918;SDS011;38793;52.690;6.812;2022-10-15T01:37:25;285.70;;;58.97;;
52918;SDS011;38793;52.690;6.812;2022-10-15T01:40:06;197.30;;;54.03;;
52918;SDS011;38793;52.690;6.812;2022-10-15T01:42:44;159.85;;;56.33;;
52918;SDS011;38793;52.690;6.812;2022-10-15T01:45:18;215.32;;;53.45;;
52918;SDS011;38793;52.690;6.812;2022-10-15T01:48:05;179.68;;;53.47;;
52918;SDS011;38793;52.690;6.812;2022-10-15T01:50:34;159.23;;;52.08;;
52918;SDS011;38793;52.690;6.812;2022-10-15T01:53:12;163.30;;;51.60;;
52918;SDS011;38793;52.690;6.812;2022-10-15T01:55:43;116.88;;;48.22;;
52918;SDS011;38793;52.690;6.812;2022-10-15T01:58:10;137.15;;;55.65;;
52918;SDS011;38793;52.690;6.812;2022-10-15T02:00:37;110.75;;;48.53;;
52918;SDS011;38793;52.690;6.812;2022-10-15T02:03:05;96.53;;;46.35;;
52918;SDS011;38793;52.690;6.812;2022-10-15T02:05:32;100.13;;;46.77;;
52918;SDS011;38793;52.690;6.812;2022-10-15T02:10:42;105.10;;;49.08;;
52918;SDS011;38793;52.690;6.812;2022-10-15T02:13:26;91.03;;;46.95;;
52918;SDS011;38793;52.690;6.812;2022-10-15T02:16:02;101.43;;;49.22;;
52918;SDS011;38793;52.690;6.812;2022-10-15T02:18:49;132.23;;;54.20;;
52918;SDS011;38793;52.690;6.812;2022-10-15T02:23:52;124.05;;;57.75;;
52918;SDS011;38793;52.690;6.812;2022-10-15T02:26:26;110.80;;;51.80;;
52918;SDS011;38793;52.690;6.812;2022-10-15T02:28:55;95.50;;;48.17;;
52918;SDS011;38793;52.690;6.812;2022-10-15T02:31:23;95.47;;;49.13;;
52918;SDS011;38793;52.690;6.812;2022-10-15T02:33:54;114.32;;;50.53;;
52918;SDS011;38793;52.690;6.812;2022-10-15T02:36:25;94.32;;;49.75;;
52918;SDS011;38793;52.690;6.812;2022-10-15T02:38:51;100.22;;;48.13;;
52918;SDS011;38793;52.690;6.812;2022-10-15T02:41:20;102.40;;;48.28;;
52918;SDS011;38793;52.690;6.812;2022-10-15T02:43:46;93.88;;;47.60;;
52918;SDS011;38793;52.690;6.812;2022-10-15T02:46:12;98.45;;;48.67;;
52918;SDS011;38793;52.690;6.812;2022-10-15T02:48:40;99.75;;;49.80;;
52918;SDS011;38793;52.690;6.812;2022-10-15T02:51:05;85.93;;;47.43;;
52918;SDS011;38793;52.690;6.812;2022-10-15T02:53:31;83.87;;;43.37;;
52918;SDS011;38793;52.690;6.812;2022-10-15T02:55:57;100.35;;;48.88;;
52918;SDS011;38793;52.690;6.812;2022-10-15T02:58:22;86.60;;;44.88;;
52918;SDS011;38793;52.690;6.812;2022-10-15T03:00:48;85.75;;;44.80;;
52918;SDS011;38793;52.690;6.812;2022-10-15T03:03:14;89.88;;;45.72;;
52918;SDS011;38793;52.690;6.812;2022-10-15T03:05:40;87.30;;;45.15;;
52918;SDS011;38793;52.690;6.812;2022-10-15T03:08:07;90.35;;;43.95;;
52918;SDS011;38793;52.690;6.812;2022-10-15T03:10:32;82.17;;;43.87;;
52918;SDS011;38793;52.690;6.812;2022-10-15T03:13:02;83.77;;;47.13;;
52918;SDS011;38793;52.690;6.812;2022-10-15T03:15:28;85.82;;;45.50;;
52918;SDS011;38793;52.690;6.812;2022-10-15T03:17:54;81.47;;;45.08;;
52918;SDS011;38793;52.690;6.812;2022-10-15T03:20:19;73.40;;;41.10;;
52918;SDS011;38793;52.690;6.812;2022-10-15T03:22:45;75.15;;;43.03;;
52918;SDS011;38793;52.690;6.812;2022-10-15T03:25:11;80.43;;;43.22;;
52918;SDS011;38793;52.690;6.812;2022-10-15T03:27:36;81.60;;;44.97;;
52918;SDS011;38793;52.690;6.812;2022-10-15T03:30:02;77.60;;;41.63;;
52918;SDS011;38793;52.690;6.812;2022-10-15T03:32:27;69.10;;;41.83;;
52918;SDS011;38793;52.690;6.812;2022-10-15T03:34:53;77.93;;;41.07;;
52918;SDS011;38793;52.690;6.812;2022-10-15T03:37:18;72.60;;;40.03;;
52918;SDS011;38793;52.690;6.812;2022-10-15T03:39:44;68.80;;;40.23;;
52918;SDS011;38793;52.690;6.812;2022-10-15T03:42:10;68.97;;;40.00;;
52918;SDS011;38793;52.690;6.812;2022-10-15T03:44:35;63.60;;;37.13;;
52918;SDS011;38793;52.690;6.812;2022-10-15T03:47:01;58.00;;;36.90;;
52918;SDS011;38793;52.690;6.812;2022-10-15T03:49:26;59.70;;;34.33;;
52918;SDS011;38793;52.690;6.812;2022-10-15T03:51:52;60.30;;;37.23;;
52918;SDS011;38793;52.690;6.812;2022-10-15T03:54:17;62.80;;;35.77;;
52918;SDS011;38793;52.690;6.812;2022-10-15T03:56:43;54.37;;;34.57;;
52918;SDS011;38793;52.690;6.812;2022-10-15T03:59:08;56.83;;;34.73;;
52918;SDS011;38793;52.690;6.812;2022-10-15T04:01:34;52.57;;;35.90;;
52918;SDS011;38793;52.690;6.812;2022-10-15T04:03:59;62.10;;;35.87;;
52918;SDS011;38793;52.690;6.812;2022-10-15T04:06:25;66.77;;;37.93;;
52918;SDS011;38793;52.690;6.812;2022-10-15T04:08:50;59.00;;;35.10;;
52918;SDS011;38793;52.690;6.812;2022-10-15T04:11:16;65.63;;;38.17;;
52918;SDS011;38793;52.690;6.812;2022-10-15T04:13:41;57.13;;;36.23;;
52918;SDS011;38793;52.690;6.812;2022-10-15T04:16:07;61.57;;;37.30;;
52918;SDS011;38793;52.690;6.812;2022-10-15T04:18:32;59.15;;;36.05;;
52918;SDS011;38793;52.690;6.812;2022-10-15T04:20:58;63.13;;;38.95;;
52918;SDS011;38793;52.690;6.812;2022-10-15T04:23:25;58.58;;;37.30;;
52918;SDS011;38793;52.690;6.812;2022-10-15T04:25:50;63.60;;;38.33;;
52918;SDS011;38793;52.690;6.812;2022-10-15T04:28:16;67.13;;;38.17;;
52918;SDS011;38793;52.690;6.812;2022-10-15T04:30:41;68.27;;;42.70;;
52918;SDS011;38793;52.690;6.812;2022-10-15T04:33:07;65.23;;;39.97;;
52918;SDS011;38793;52.690;6.812;2022-10-15T04:35:33;68.32;;;38.65;;
52918;SDS011;38793;52.690;6.812;2022-10-15T04:37:59;60.40;;;37.17;;
52918;SDS011;38793;52.690;6.812;2022-10-15T04:40:25;70.43;;;43.00;;
52918;SDS011;38793;52.690;6.812;2022-10-15T04:42:50;67.15;;;41.05;;
52918;SDS011;38793;52.690;6.812;2022-10-15T04:45:16;66.73;;;39.87;;
52918;SDS011;38793;52.690;6.812;2022-10-15T04:47:42;62.20;;;39.17;;
52918;SDS011;38793;52.690;6.812;2022-10-15T04:50:08;67.53;;;39.13;;
52918;SDS011;38793;52.690;6.812;2022-10-15T04:52:34;67.70;;;38.65;;
52918;SDS011;38793;52.690;6.812;2022-10-15T04:55:00;62.40;;;39.17;;
52918;SDS011;38793;52.690;6.812;2022-10-15T04:57:27;61.13;;;38.38;;
52918;SDS011;38793;52.690;6.812;2022-10-15T04:59:52;62.20;;;37.42;;
52918;SDS011;38793;52.690;6.812;2022-10-15T05:02:18;64.05;;;40.35;;
52918;SDS011;38793;52.690;6.812;2022-10-15T05:04:44;70.15;;;39.97;;
52918;SDS011;38793;52.690;6.812;2022-10-15T05:07:09;64.63;;;39.70;;
52918;SDS011;38793;52.690;6.812;2022-10-15T05:09:35;66.00;;;39.27;;
52918;SDS011;38793;52.690;6.812;2022-10-15T05:12:00;69.37;;;39.93;;
52918;SDS011;38793;52.690;6.812;2022-10-15T05:14:26;63.60;;;39.20;;
52918;SDS011;38793;52.690;6.812;2022-10-15T05:16:52;74.50;;;42.10;;
52918;SDS011;38793;52.690;6.812;2022-10-15T05:19:17;65.00;;;38.00;;
52918;SDS011;38793;52.690;6.812;2022-10-15T05:21:43;61.97;;;39.38;;
52918;SDS011;38793;52.690;6.812;2022-10-15T05:24:09;81.57;;;41.77;;
52918;SDS011;38793;52.690;6.812;2022-10-15T05:26:35;77.05;;;43.15;;
52918;SDS011;38793;52.690;6.812;2022-10-15T05:29:01;79.93;;;44.20;;
52918;SDS011;38793;52.690;6.812;2022-10-15T05:31:27;81.53;;;45.27;;
52918;SDS011;38793;52.690;6.812;2022-10-15T05:33:55;76.70;;;43.13;;
52918;SDS011;38793;52.690;6.812;2022-10-15T05:36:22;78.88;;;43.75;;
52918;SDS011;38793;52.690;6.812;2022-10-15T05:38:50;78.18;;;42.45;;
52918;SDS011;38793;52.690;6.812;2022-10-15T05:41:18;74.35;;;43.67;;
52918;SDS011;38793;52.690;6.812;2022-10-15T05:46:14;86.95;;;47.25;;
52918;SDS011;38793;52.690;6.812;2022-10-15T05:48:39;80.03;;;43.55;;
52918;SDS011;38793;52.690;6.812;2022-10-15T05:51:06;88.90;;;46.40;;
52918;SDS011;38793;52.690;6.812;2022-10-15T05:53:34;79.40;;;44.08;;
52918;SDS011;38793;52.690;6.812;2022-10-15T05:56:00;91.22;;;47.08;;
52918;SDS011;38793;52.690;6.812;2022-10-15T05:58:26;95.97;;;46.87;;
52918;SDS011;38793;52.690;6.812;2022-10-15T06:00:57;83.82;;;46.00;;
52918;SDS011;38793;52.690;6.812;2022-10-15T06:03:23;87.82;;;46.97;;
52918;SDS011;38793;52.690;6.812;2022-10-15T06:05:50;85.70;;;45.13;;
52918;SDS011;38793;52.690;6.812;2022-10-15T06:08:16;90.72;;;45.45;;
52918;SDS011;38793;52.690;6.812;2022-10-15T06:10:42;90.25;;;46.20;;
52918;SDS011;38793;52.690;6.812;2022-10-15T06:13:07;91.40;;;46.08;;
52918;SDS011;38793;52.690;6.812;2022-10-15T06:15:33;81.70;;;44.13;;
52918;SDS011;38793;52.690;6.812;2022-10-15T06:17:59;79.80;;;45.60;;
52918;SDS011;38793;52.690;6.812;2022-10-15T06:20:25;78.25;;;45.13;;
52918;SDS011;38793;52.690;6.812;2022-10-15T06:22:55;76.50;;;43.20;;
52918;SDS011;38793;52.690;6.812;2022-10-15T06:25:22;84.43;;;45.42;;
52918;SDS011;38793;52.690;6.812;2022-10-15T06:27:48;77.63;;;43.65;;
52918;SDS011;38793;52.690;6.812;2022-10-15T06:30:13;73.73;;;42.97;;
52918;SDS011;38793;52.690;6.812;2022-10-15T06:32:39;73.90;;;42.77;;
52918;SDS011;38793;52.690;6.812;2022-10-15T06:35:10;79.00;;;45.97;;
52918;SDS011;38793;52.690;6.812;2022-10-15T06:37:35;72.67;;;42.73;;
52918;SDS011;38793;52.690;6.812;2022-10-15T06:40:01;75.67;;;44.63;;
52918;SDS011;38793;52.690;6.812;2022-10-15T06:42:27;65.75;;;40.50;;
52918;SDS011;38793;52.690;6.812;2022-10-15T06:44:52;73.93;;;41.40;;
52918;SDS011;38793;52.690;6.812;2022-10-15T06:47:18;73.27;;;40.87;;
52918;SDS011;38793;52.690;6.812;2022-10-15T06:49:43;67.63;;;40.70;;
52918;SDS011;38793;52.690;6.812;2022-10-15T06:52:09;74.87;;;40.97;;
52918;SDS011;38793;52.690;6.812;2022-10-15T06:54:34;66.33;;;42.27;;
52918;SDS011;38793;52.690;6.812;2022-10-15T06:57:00;75.83;;;42.70;;
52918;SDS011;38793;52.690;6.812;2022-10-15T06:59:25;72.63;;;41.43;;
52918;SDS011;38793;52.690;6.812;2022-10-15T07:01:51;72.83;;;43.63;;
52918;SDS011;38793;52.690;6.812;2022-10-15T07:04:16;64.43;;;40.70;;
52918;SDS011;38793;52.690;6.812;2022-10-15T07:06:42;67.37;;;39.87;;
52918;SDS011;38793;52.690;6.812;2022-10-15T07:09:07;68.50;;;40.08;;
52918;SDS011;38793;52.690;6.812;2022-10-15T07:11:33;69.32;;;40.55;;
52918;SDS011;38793;52.690;6.812;2022-10-15T07:13:58;66.40;;;39.63;;
52918;SDS011;38793;52.690;6.812;2022-10-15T07:16:24;63.87;;;39.50;;
52918;SDS011;38793;52.690;6.812;2022-10-15T07:18:50;64.28;;;41.20;;
52918;SDS011;38793;52.690;6.812;2022-10-15T07:21:16;68.95;;;39.92;;
52918;SDS011;38793;52.690;6.812;2022-10-15T07:23:41;68.32;;;42.20;;
52918;SDS011;38793;52.690;6.812;2022-10-15T07:26:07;71.23;;;40.40;;
52918;SDS011;38793;52.690;6.812;2022-10-15T07:28:32;66.25;;;40.08;;
52918;SDS011;38793;52.690;6.812;2022-10-15T07:31:01;64.50;;;39.15;;
52918;SDS011;38793;52.690;6.812;2022-10-15T07:33:29;61.47;;;38.85;;
52918;SDS011;38793;52.690;6.812;2022-10-15T07:35:55;59.08;;;39.42;;
52918;SDS011;38793;52.690;6.812;2022-10-15T07:38:21;60.00;;;39.13;;
52918;SDS011;38793;52.690;6.812;2022-10-15T07:40:46;63.90;;;39.73;;
52918;SDS011;38793;52.690;6.812;2022-10-15T07:43:12;58.63;;;39.43;;
52918;SDS011;38793;52.690;6.812;2022-10-15T07:45:37;56.37;;;39.80;;
52918;SDS011;38793;52.690;6.812;2022-10-15T07:48:04;56.15;;;38.33;;
52918;SDS011;38793;52.690;6.812;2022-10-15T07:50:29;55.33;;;38.95;;
52918;SDS011;38793;52.690;6.812;2022-10-15T07:52:55;55.83;;;40.28;;
52918;SDS011;38793;52.690;6.812;2022-10-15T07:55:20;62.23;;;40.53;;
52918;SDS011;38793;52.690;6.812;2022-10-15T07:57:46;59.63;;;42.90;;
52918;SDS011;38793;52.690;6.812;2022-10-15T08:00:12;63.63;;;41.27;;
52918;SDS011;38793;52.690;6.812;2022-10-15T08:02:37;66.00;;;42.55;;
52918;SDS011;38793;52.690;6.812;2022-10-15T08:07:29;65.30;;;42.83;;
52918;SDS011;38793;52.690;6.812;2022-10-15T08:09:55;71.10;;;44.20;;
52918;SDS011;38793;52.690;6.812;2022-10-15T08:12:20;67.23;;;45.27;;
52918;SDS011;38793;52.690;6.812;2022-10-15T08:14:46;65.05;;;43.88;;
52918;SDS011;38793;52.690;6.812;2022-10-15T08:17:11;66.63;;;45.40;;
52918;SDS011;38793;52.690;6.812;2022-10-15T08:19:37;69.70;;;45.45;;
52918;SDS011;38793;52.690;6.812;2022-10-15T08:22:02;73.72;;;48.53;;
52918;SDS011;38793;52.690;6.812;2022-10-15T08:24:28;72.05;;;45.58;;
52918;SDS011;38793;52.690;6.812;2022-10-15T08:26:55;63.03;;;44.72;;
52918;SDS011;38793;52.690;6.812;2022-10-15T08:29:22;64.22;;;46.67;;
52918;SDS011;38793;52.690;6.812;2022-10-15T08:31:48;66.80;;;45.30;;
52918;SDS011;38793;52.690;6.812;2022-10-15T08:34:13;72.03;;;46.17;;
52918;SDS011;38793;52.690;6.812;2022-10-15T08:36:39;65.10;;;44.77;;
52918;SDS011;38793;52.690;6.812;2022-10-15T08:39:04;64.37;;;42.30;;
52918;SDS011;38793;52.690;6.812;2022-10-15T08:41:41;61.63;;;44.67;;
52918;SDS011;38793;52.690;6.812;2022-10-15T08:44:20;69.22;;;44.75;;
52918;SDS011;38793;52.690;6.812;2022-10-15T08:52:06;62.75;;;42.03;;
52918;SDS011;38793;52.690;6.812;2022-10-15T08:54:40;66.72;;;42.53;;
52918;SDS011;38793;52.690;6.812;2022-10-15T08:57:16;69.30;;;44.77;;
52918;SDS011;38793;52.690;6.812;2022-10-15T08:59:48;69.18;;;45.03;;
52918;SDS011;38793;52.690;6.812;2022-10-15T09:02:28;72.65;;;45.03;;
52918;SDS011;38793;52.690;6.812;2022-10-15T09:05:09;80.10;;;48.55;;
52918;SDS011;38793;52.690;6.812;2022-10-15T09:10:43;82.28;;;49.05;;
52918;SDS011;38793;52.690;6.812;2022-10-15T09:15:54;84.30;;;47.72;;
52918;SDS011;38793;52.690;6.812;2022-10-15T09:18:32;87.57;;;47.78;;
52918;SDS011;38793;52.690;6.812;2022-10-15T09:20:59;84.80;;;48.47;;
52918;SDS011;38793;52.690;6.812;2022-10-15T09:23:28;88.38;;;48.90;;
52918;SDS011;38793;52.690;6.812;2022-10-15T09:26:08;84.40;;;49.35;;
52918;SDS011;38793;52.690;6.812;2022-10-15T09:28:55;78.63;;;44.83;;
52918;SDS011;38793;52.690;6.812;2022-10-15T09:31:34;77.90;;;43.97;;
52918;SDS011;38793;52.690;6.812;2022-10-15T09:34:13;73.25;;;43.50;;
52918;SDS011;38793;52.690;6.812;2022-10-15T09:36:49;81.47;;;44.70;;
52918;SDS011;38793;52.690;6.812;2022-10-15T09:42:13;69.88;;;43.65;;
52918;SDS011;38793;52.690;6.812;2022-10-15T09:44:41;73.65;;;42.83;;
52918;SDS011;38793;52.690;6.812;2022-10-15T09:50:06;74.78;;;42.45;;
52918;SDS011;38793;52.690;6.812;2022-10-15T09:52:51;65.82;;;40.63;;
52918;SDS011;38793;52.690;6.812;2022-10-15T09:55:41;64.55;;;37.90;;
52918;SDS011;38793;52.690;6.812;2022-10-15T10:00:55;58.90;;;35.77;;
52918;SDS011;38793;52.690;6.812;2022-10-15T10:03:23;56.72;;;35.42;;
52918;SDS011;38793;52.690;6.812;2022-10-15T10:05:58;56.95;;;35.60;;
52918;SDS011;38793;52.690;6.812;2022-10-15T10:08:31;56.78;;;33.85;;
52918;SDS011;38793;52.690;6.812;2022-10-15T10:11:02;50.38;;;32.33;;
52918;SDS011;38793;52.690;6.812;2022-10-15T10:13:30;42.35;;;31.23;;
52918;SDS011;38793;52.690;6.812;2022-10-15T10:16:05;46.47;;;30.63;;
52918;SDS011;38793;52.690;6.812;2022-10-15T10:18:33;42.00;;;30.58;;
52918;SDS011;38793;52.690;6.812;2022-10-15T10:21:02;45.05;;;30.45;;
52918;SDS011;38793;52.690;6.812;2022-10-15T10:25:59;39.88;;;27.23;;
52918;SDS011;38793;52.690;6.812;2022-10-15T10:28:29;43.40;;;28.83;;
52918;SDS011;38793;52.690;6.812;2022-10-15T10:33:29;33.77;;;24.67;;
52918;SDS011;38793;52.690;6.812;2022-10-15T10:36:21;33.50;;;26.15;;
52918;SDS011;38793;52.690;6.812;2022-10-15T10:41:49;29.77;;;23.20;;
52918;SDS011;38793;52.690;6.812;2022-10-15T10:44:36;39.25;;;27.27;;
52918;SDS011;38793;52.690;6.812;2022-10-15T10:52:23;28.85;;;21.63;;
52918;SDS011;38793;52.690;6.812;2022-10-15T10:54:55;29.45;;;21.52;;
52918;SDS011;38793;52.690;6.812;2022-10-15T11:00:26;24.13;;;19.08;;
52918;SDS011;38793;52.690;6.812;2022-10-15T11:03:00;25.73;;;18.15;;
52918;SDS011;38793;52.690;6.812;2022-10-15T11:05:27;26.90;;;18.83;;
52918;SDS011;38793;52.690;6.812;2022-10-15T11:07:59;21.70;;;18.65;;
52918;SDS011;38793;52.690;6.812;2022-10-15T11:10:59;23.25;;;18.80;;
52918;SDS011;38793;52.690;6.812;2022-10-15T11:13:58;26.92;;;17.95;;
52918;SDS011;38793;52.690;6.812;2022-10-15T11:16:47;25.58;;;19.38;;
52918;SDS011;38793;52.690;6.812;2022-10-15T11:19:24;25.15;;;18.83;;
52918;SDS011;38793;52.690;6.812;2022-10-15T11:22:05;23.33;;;19.13;;
52918;SDS011;38793;52.690;6.812;2022-10-15T11:29:55;23.38;;;16.42;;
52918;SDS011;38793;52.690;6.812;2022-10-15T11:38:02;22.35;;;16.55;;
52918;SDS011;38793;52.690;6.812;2022-10-15T11:46:26;20.45;;;15.70;;
52918;SDS011;38793;52.690;6.812;2022-10-15T11:49:15;21.50;;;15.80;;
52918;SDS011;38793;52.690;6.812;2022-10-15T11:54:38;23.83;;;18.35;;
52918;SDS011;38793;52.690;6.812;2022-10-15T11:57:25;40.60;;;32.90;;
52918;SDS011;38793;52.690;6.812;2022-10-15T11:59:54;22.33;;;17.35;;
52918;SDS011;38793;52.690;6.812;2022-10-15T12:02:32;21.70;;;17.25;;
52918;SDS011;38793;52.690;6.812;2022-10-15T12:05:16;24.02;;;18.23;;
52918;SDS011;38793;52.690;6.812;2022-10-15T12:07:46;25.88;;;18.33;;
52918;SDS011;38793;52.690;6.812;2022-10-15T12:10:18;19.73;;;16.30;;
52918;SDS011;38793;52.690;6.812;2022-10-15T12:13:08;25.77;;;18.75;;
52918;SDS011;38793;52.690;6.812;2022-10-15T12:21:41;37.88;;;28.45;;
52918;SDS011;38793;52.690;6.812;2022-10-15T12:29:44;52.72;;;45.67;;
52918;SDS011;38793;52.690;6.812;2022-10-15T12:32:27;28.35;;;20.65;;
52918;SDS011;38793;52.690;6.812;2022-10-15T12:34:58;42.65;;;28.35;;
52918;SDS011;38793;52.690;6.812;2022-10-15T12:37:28;31.73;;;21.85;;
52918;SDS011;38793;52.690;6.812;2022-10-15T12:40:03;44.60;;;35.78;;
52918;SDS011;38793;52.690;6.812;2022-10-15T12:42:34;31.48;;;21.55;;
52918;SDS011;38793;52.690;6.812;2022-10-15T12:45:17;40.33;;;24.77;;
52918;SDS011;38793;52.690;6.812;2022-10-15T12:50:21;31.42;;;21.52;;
52918;SDS011;38793;52.690;6.812;2022-10-15T12:58:36;309.35;;;277.50;;
52918;SDS011;38793;52.690;6.812;2022-10-15T13:08:50;132.40;;;119.13;;
52918;SDS011;38793;52.690;6.812;2022-10-15T13:11:30;104.85;;;90.55;;
52918;SDS011;38793;52.690;6.812;2022-10-15T13:14:10;34.08;;;26.08;;
52918;SDS011;38793;52.690;6.812;2022-10-15T13:19:32;92.88;;;72.95;;
52918;SDS011;38793;52.690;6.812;2022-10-15T13:22:02;29.27;;;23.55;;
52918;SDS011;38793;52.690;6.812;2022-10-15T13:24:37;28.02;;;23.73;;
52918;SDS011;38793;52.690;6.812;2022-10-15T13:27:12;308.90;;;276.55;;
52918;SDS011;38793;52.690;6.812;2022-10-15T13:29:44;25.88;;;23.17;;
52918;SDS011;38793;52.690;6.812;2022-10-15T13:32:21;54.78;;;43.30;;
52918;SDS011;38793;52.690;6.812;2022-10-15T13:34:48;279.60;;;244.90;;
52918;SDS011;38793;52.690;6.812;2022-10-15T13:37:16;28.45;;;25.13;;
52918;SDS011;38793;52.690;6.812;2022-10-15T13:39:43;26.08;;;23.40;;
52918;SDS011;38793;52.690;6.812;2022-10-15T13:42:13;24.25;;;21.75;;
52918;SDS011;38793;52.690;6.812;2022-10-15T13:44:43;24.10;;;21.67;;
52918;SDS011;38793;52.690;6.812;2022-10-15T13:49:50;21.83;;;19.67;;
52918;SDS011;38793;52.690;6.812;2022-10-15T13:52:36;18.80;;;17.05;;
52918;SDS011;38793;52.690;6.812;2022-10-15T13:55:03;18.40;;;16.63;;
52918;SDS011;38793;52.690;6.812;2022-10-15T13:57:29;17.90;;;16.08;;
52918;SDS011;38793;52.690;6.812;2022-10-15T13:59:55;16.33;;;14.63;;
52918;SDS011;38793;52.690;6.812;2022-10-15T14:02:20;17.63;;;15.82;;
52918;SDS011;38793;52.690;6.812;2022-10-15T14:04:46;18.23;;;16.58;;
52918;SDS011;38793;52.690;6.812;2022-10-15T14:07:22;16.20;;;14.57;;
52918;SDS011;38793;52.690;6.812;2022-10-15T14:09:51;15.10;;;13.60;;
52918;SDS011;38793;52.690;6.812;2022-10-15T14:12:17;14.05;;;12.77;;
52918;SDS011;38793;52.690;6.812;2022-10-15T14:14:43;12.57;;;11.48;;
52918;SDS011;38793;52.690;6.812;2022-10-15T14:19:50;10.32;;;9.52;;
52918;SDS011;38793;52.690;6.812;2022-10-15T14:22:22;9.75;;;8.90;;
52918;SDS011;38793;52.690;6.812;2022-10-15T14:24:50;10.05;;;9.15;;
52918;SDS011;38793;52.690;6.812;2022-10-15T14:27:19;8.38;;;7.57;;
52918;SDS011;38793;52.690;6.812;2022-10-15T14:29:49;7.93;;;7.32;;
52918;SDS011;38793;52.690;6.812;2022-10-15T14:32:27;6.60;;;6.10;;
52918;SDS011;38793;52.690;6.812;2022-10-15T14:35:28;8.15;;;7.45;;
52918;SDS011;38793;52.690;6.812;2022-10-15T14:37:58;7.30;;;6.60;;
52918;SDS011;38793;52.690;6.812;2022-10-15T14:40:29;7.32;;;6.70;;
52918;SDS011;38793;52.690;6.812;2022-10-15T14:45:39;7.70;;;6.95;;
52918;SDS011;38793;52.690;6.812;2022-10-15T14:48:08;7.35;;;6.75;;
52918;SDS011;38793;52.690;6.812;2022-10-15T14:50:41;6.80;;;6.20;;
52918;SDS011;38793;52.690;6.812;2022-10-15T14:53:09;5.72;;;5.28;;
52918;SDS011;38793;52.690;6.812;2022-10-15T14:55:47;6.70;;;6.13;;
52918;SDS011;38793;52.690;6.812;2022-10-15T14:58:17;6.03;;;5.30;;
52918;SDS011;38793;52.690;6.812;2022-10-15T15:00:48;7.65;;;6.95;;
52918;SDS011;38793;52.690;6.812;2022-10-15T15:03:26;6.95;;;6.35;;
52918;SDS011;38793;52.690;6.812;2022-10-15T15:05:55;7.55;;;6.85;;
52918;SDS011;38793;52.690;6.812;2022-10-15T15:08:22;7.22;;;6.63;;
52918;SDS011;38793;52.690;6.812;2022-10-15T15:10:49;7.82;;;6.30;;
52918;SDS011;38793;52.690;6.812;2022-10-15T15:13:23;9.18;;;8.38;;
52918;SDS011;38793;52.690;6.812;2022-10-15T15:15:50;6.00;;;5.50;;
52918;SDS011;38793;52.690;6.812;2022-10-15T15:20:42;7.20;;;6.55;;
52918;SDS011;38793;52.690;6.812;2022-10-15T15:23:13;6.85;;;5.88;;
52918;SDS011;38793;52.690;6.812;2022-10-15T15:25:43;4.63;;;4.28;;
52918;SDS011;38793;52.690;6.812;2022-10-15T15:28:12;3.60;;;3.30;;
52918;SDS011;38793;52.690;6.812;2022-10-15T15:30:41;4.85;;;4.32;;
52918;SDS011;38793;52.690;6.812;2022-10-15T15:33:11;4.35;;;3.95;;
52918;SDS011;38793;52.690;6.812;2022-10-15T15:35:39;4.43;;;4.03;;
52918;SDS011;38793;52.690;6.812;2022-10-15T15:38:14;4.95;;;4.50;;
52918;SDS011;38793;52.690;6.812;2022-10-15T15:40:41;5.35;;;4.95;;
52918;SDS011;38793;52.690;6.812;2022-10-15T15:43:07;4.63;;;4.22;;
52918;SDS011;38793;52.690;6.812;2022-10-15T15:45:35;5.82;;;5.20;;
52918;SDS011;38793;52.690;6.812;2022-10-15T15:48:01;4.65;;;4.20;;
52918;SDS011;38793;52.690;6.812;2022-10-15T15:52:53;5.28;;;4.68;;
52918;SDS011;38793;52.690;6.812;2022-10-15T15:55:18;7.82;;;4.90;;
52918;SDS011;38793;52.690;6.812;2022-10-15T15:57:44;7.25;;;3.83;;
52918;SDS011;38793;52.690;6.812;2022-10-15T16:00:10;6.60;;;4.90;;
52918;SDS011;38793;52.690;6.812;2022-10-15T16:02:39;4.78;;;4.15;;
52918;SDS011;38793;52.690;6.812;2022-10-15T16:05:06;5.68;;;4.30;;
52918;SDS011;38793;52.690;6.812;2022-10-15T16:07:33;5.15;;;4.50;;
52918;SDS011;38793;52.690;6.812;2022-10-15T16:09:58;4.50;;;4.13;;
52918;SDS011;38793;52.690;6.812;2022-10-15T16:12:24;5.20;;;4.63;;
52918;SDS011;38793;52.690;6.812;2022-10-15T16:14:50;5.10;;;4.07;;
52918;SDS011;38793;52.690;6.812;2022-10-15T16:17:15;5.28;;;3.70;;
52918;SDS011;38793;52.690;6.812;2022-10-15T16:19:41;5.68;;;4.93;;
52918;SDS011;38793;52.690;6.812;2022-10-15T16:22:07;6.32;;;5.35;;
52918;SDS011;38793;52.690;6.812;2022-10-15T16:24:32;8.43;;;4.85;;
52918;SDS011;38793;52.690;6.812;2022-10-15T16:26:58;5.72;;;4.88;;
52918;SDS011;38793;52.690;6.812;2022-10-15T16:29:24;5.10;;;4.75;;
52918;SDS011;38793;52.690;6.812;2022-10-15T16:31:49;6.30;;;5.75;;
52918;SDS011;38793;52.690;6.812;2022-10-15T16:34:15;4.43;;;4.03;;
52918;SDS011;38793;52.690;6.812;2022-10-15T16:36:41;8.18;;;6.82;;
52918;SDS011;38793;52.690;6.812;2022-10-15T16:39:06;5.38;;;4.88;;
52918;SDS011;38793;52.690;6.812;2022-10-15T16:41:32;8.05;;;5.55;;
52918;SDS011;38793;52.690;6.812;2022-10-15T16:43:57;5.78;;;5.30;;